Bear Poplar, North Carolina
Current Conditions -  °F | °C
As of 5:55 PM on Tuesday 27 Jan 2015 (Local Time) from KRUQ Reporting Station
Clear Clear  
Wind Chill: 36°   Ceiling: Unl
Heat Index: 40°   Visibility: 10mi
Dew Point: 15°   Wind: 7mph
Humidity: 36%   Direction: 290°WNW
Pressure: 29.89"   Gusts: NA
Location:  35.6421°N, 80.719°W
Report Text: KRUQ 272255Z AUTO 29006KT 10SM CLR 05/M09 A2989 RMK AO2 T00461094
Loading
Personal Weather Stations






























Interactive Weather Map New forecast layout! Learn more

10-Day Weather Forecast

Advertisements
Track Severe Weather on mobile